sensor_id;sensor_type;location;lat;lon;timestamp;pressure;altitude;pressure_sealevel;temperature;humidity
48824;BME280;34640;53.590;10.054;2023-09-19T00:02:45;99939.13;;;17.79;100.00
48824;BME280;34640;53.590;10.054;2023-09-19T00:05:39;99941.81;;;17.82;100.00
48824;BME280;34640;53.590;10.054;2023-09-19T00:08:33;99937.50;;;17.87;100.00
48824;BME280;34640;53.590;10.054;2023-09-19T00:11:24;99932.16;;;17.83;100.00
48824;BME280;34640;53.590;10.054;2023-09-19T00:14:16;99937.25;;;17.74;100.00
48824;BME280;34640;53.590;10.054;2023-09-19T00:17:08;99933.69;;;17.70;100.00
48824;BME280;34640;53.590;10.054;2023-09-19T00:20:04;99935.41;;;17.68;100.00
48824;BME280;34640;53.590;10.054;2023-09-19T00:23:04;99931.94;;;17.72;100.00
48824;BME280;34640;53.590;10.054;2023-09-19T00:25:59;99937.22;;;17.72;100.00
48824;BME280;34640;53.590;10.054;2023-09-19T00:28:52;99953.66;;;17.60;100.00
48824;BME280;34640;53.590;10.054;2023-09-19T00:31:43;99947.47;;;17.57;100.00
48824;BME280;34640;53.590;10.054;2023-09-19T00:34:34;99940.53;;;17.62;100.00
48824;BME280;34640;53.590;10.054;2023-09-19T00:37:25;99945.00;;;17.66;100.00
48824;BME280;34640;53.590;10.054;2023-09-19T00:40:25;99949.28;;;17.61;100.00
48824;BME280;34640;53.590;10.054;2023-09-19T00:43:23;99956.28;;;17.59;100.00
48824;BME280;34640;53.590;10.054;2023-09-19T00:46:16;99951.09;;;17.63;100.00
48824;BME280;34640;53.590;10.054;2023-09-19T00:49:14;99944.84;;;17.57;100.00
48824;BME280;34640;53.590;10.054;2023-09-19T00:52:06;99936.81;;;17.52;100.00
48824;BME280;34640;53.590;10.054;2023-09-19T00:55:00;99947.31;;;17.49;100.00
48824;BME280;34640;53.590;10.054;2023-09-19T00:58:00;99956.00;;;17.45;100.00
48824;BME280;34640;53.590;10.054;2023-09-19T01:00:55;99960.34;;;17.41;100.00
48824;BME280;34640;53.590;10.054;2023-09-19T01:03:47;99965.66;;;17.45;100.00
48824;BME280;34640;53.590;10.054;2023-09-19T01:06:45;99966.59;;;17.48;100.00
48824;BME280;34640;53.590;10.054;2023-09-19T01:09:42;99958.03;;;17.58;100.00
48824;BME280;34640;53.590;10.054;2023-09-19T01:12:36;99957.13;;;17.58;100.00
48824;BME280;34640;53.590;10.054;2023-09-19T01:15:38;99965.06;;;17.59;100.00
48824;BME280;34640;53.590;10.054;2023-09-19T01:18:39;99968.44;;;17.54;100.00
48824;BME280;34640;53.590;10.054;2023-09-19T01:21:33;99971.97;;;17.54;100.00
48824;BME280;34640;53.590;10.054;2023-09-19T01:24:48;99977.13;;;17.48;100.00
48824;BME280;34640;53.590;10.054;2023-09-19T01:28:01;99970.13;;;17.50;100.00
48824;BME280;34640;53.590;10.054;2023-09-19T01:30:58;99973.59;;;17.48;100.00
48824;BME280;34640;53.590;10.054;2023-09-19T01:33:57;99979.66;;;17.42;100.00
48824;BME280;34640;53.590;10.054;2023-09-19T01:36:50;99977.16;;;17.50;100.00
48824;BME280;34640;53.590;10.054;2023-09-19T01:39:41;99985.03;;;17.48;100.00
48824;BME280;34640;53.590;10.054;2023-09-19T01:42:35;99979.97;;;17.59;100.00
48824;BME280;34640;53.590;10.054;2023-09-19T01:45:32;99974.69;;;17.57;100.00
48824;BME280;34640;53.590;10.054;2023-09-19T01:48:34;99973.06;;;17.65;100.00
48824;BME280;34640;53.590;10.054;2023-09-19T01:51:29;99969.53;;;17.63;100.00
48824;BME280;34640;53.590;10.054;2023-09-19T01:54:31;99980.84;;;17.58;100.00
48824;BME280;34640;53.590;10.054;2023-09-19T01:57:26;99992.25;;;17.58;100.00
48824;BME280;34640;53.590;10.054;2023-09-19T02:00:26;99993.94;;;17.56;100.00
48824;BME280;34640;53.590;10.054;2023-09-19T02:03:19;99991.16;;;17.49;100.00
48824;BME280;34640;53.590;10.054;2023-09-19T02:06:14;99996.44;;;17.49;100.00
48824;BME280;34640;53.590;10.054;2023-09-19T02:09:07;99986.75;;;17.46;100.00
48824;BME280;34640;53.590;10.054;2023-09-19T02:11:59;100007.03;;;17.53;100.00
48824;BME280;34640;53.590;10.054;2023-09-19T02:14:52;100005.13;;;17.45;100.00
48824;BME280;34640;53.590;10.054;2023-09-19T02:17:44;100004.03;;;17.35;100.00
48824;BME280;34640;53.590;10.054;2023-09-19T02:20:35;100014.69;;;17.39;100.00
48824;BME280;34640;53.590;10.054;2023-09-19T02:23:28;100022.38;;;17.30;100.00
48824;BME280;34640;53.590;10.054;2023-09-19T02:26:19;100018.88;;;17.30;100.00
48824;BME280;34640;53.590;10.054;2023-09-19T02:29:18;100017.22;;;17.35;100.00
48824;BME280;34640;53.590;10.054;2023-09-19T02:32:12;100017.97;;;17.29;100.00
48824;BME280;34640;53.590;10.054;2023-09-19T02:35:05;100018.78;;;17.25;100.00
48824;BME280;34640;53.590;10.054;2023-09-19T02:37:56;100023.06;;;17.20;100.00
48824;BME280;34640;53.590;10.054;2023-09-19T02:40:50;100021.22;;;17.16;100.00
48824;BME280;34640;53.590;10.054;2023-09-19T02:43:41;100027.41;;;17.18;100.00
48824;BME280;34640;53.590;10.054;2023-09-19T02:46:33;100035.25;;;17.15;100.00
48824;BME280;34640;53.590;10.054;2023-09-19T02:49:26;100042.28;;;17.16;100.00
48824;BME280;34640;53.590;10.054;2023-09-19T02:52:23;100034.50;;;17.22;100.00
48824;BME280;34640;53.590;10.054;2023-09-19T02:55:15;100039.00;;;17.28;100.00
48824;BME280;34640;53.590;10.054;2023-09-19T02:58:09;100024.28;;;17.36;100.00
48824;BME280;34640;53.590;10.054;2023-09-19T03:01:07;100028.53;;;17.31;100.00
48824;BME280;34640;53.590;10.054;2023-09-19T03:03:58;100030.06;;;17.20;100.00
48824;BME280;34640;53.590;10.054;2023-09-19T03:06:56;100028.28;;;17.19;100.00
48824;BME280;34640;53.590;10.054;2023-09-19T03:09:56;100014.28;;;17.20;100.00
48824;BME280;34640;53.590;10.054;2023-09-19T03:12:48;100029.03;;;17.13;100.00
48824;BME280;34640;53.590;10.054;2023-09-19T03:15:42;100029.97;;;17.15;100.00
48824;BME280;34640;53.590;10.054;2023-09-19T03:18:36;100032.03;;;17.30;100.00
48824;BME280;34640;53.590;10.054;2023-09-19T03:21:27;100037.06;;;17.19;100.00
48824;BME280;34640;53.590;10.054;2023-09-19T03:24:19;100046.72;;;17.19;100.00
48824;BME280;34640;53.590;10.054;2023-09-19T03:27:10;100041.22;;;17.09;100.00
48824;BME280;34640;53.590;10.054;2023-09-19T03:30:06;100043.13;;;17.15;100.00
48824;BME280;34640;53.590;10.054;2023-09-19T03:32:59;100043.69;;;17.00;100.00
48824;BME280;34640;53.590;10.054;2023-09-19T03:35:58;100042.06;;;17.07;100.00
48824;BME280;34640;53.590;10.054;2023-09-19T03:38:51;100040.41;;;17.12;100.00
48824;BME280;34640;53.590;10.054;2023-09-19T03:41:42;100043.94;;;17.13;100.00
48824;BME280;34640;53.590;10.054;2023-09-19T03:44:35;100054.38;;;17.09;100.00
48824;BME280;34640;53.590;10.054;2023-09-19T03:47:27;100059.41;;;16.97;100.00
48824;BME280;34640;53.590;10.054;2023-09-19T03:50:19;100065.56;;;16.99;100.00
48824;BME280;34640;53.590;10.054;2023-09-19T03:53:11;100056.81;;;17.00;100.00
48824;BME280;34640;53.590;10.054;2023-09-19T03:56:05;100057.63;;;16.96;100.00
48824;BME280;34640;53.590;10.054;2023-09-19T03:58:58;100067.94;;;16.89;100.00
48824;BME280;34640;53.590;10.054;2023-09-19T04:01:49;100069.34;;;16.73;100.00
48824;BME280;34640;53.590;10.054;2023-09-19T04:04:53;100069.22;;;16.68;100.00
48824;BME280;34640;53.590;10.054;2023-09-19T04:07:51;100082.63;;;16.79;100.00
48824;BME280;34640;53.590;10.054;2023-09-19T04:10:43;100084.13;;;16.69;100.00
48824;BME280;34640;53.590;10.054;2023-09-19T04:13:41;100076.81;;;16.58;100.00
48824;BME280;34640;53.590;10.054;2023-09-19T04:16:33;100092.63;;;16.59;100.00
48824;BME280;34640;53.590;10.054;2023-09-19T04:19:25;100083.50;;;16.45;100.00
48824;BME280;34640;53.590;10.054;2023-09-19T04:22:16;100086.72;;;16.33;100.00
48824;BME280;34640;53.590;10.054;2023-09-19T04:25:09;100084.19;;;16.36;100.00
48824;BME280;34640;53.590;10.054;2023-09-19T04:28:00;100083.00;;;16.25;100.00
48824;BME280;34640;53.590;10.054;2023-09-19T04:30:52;100101.38;;;16.25;100.00
48824;BME280;34640;53.590;10.054;2023-09-19T04:33:49;100107.34;;;16.18;100.00
48824;BME280;34640;53.590;10.054;2023-09-19T04:36:41;100116.72;;;16.08;100.00
48824;BME280;34640;53.590;10.054;2023-09-19T04:39:39;100129.91;;;16.10;100.00
48824;BME280;34640;53.590;10.054;2023-09-19T04:42:36;100121.84;;;16.04;100.00
48824;BME280;34640;53.590;10.054;2023-09-19T04:45:28;100130.44;;;15.98;100.00
48824;BME280;34640;53.590;10.054;2023-09-19T04:48:25;100142.69;;;15.98;100.00
48824;BME280;34640;53.590;10.054;2023-09-19T04:51:24;100136.38;;;15.91;100.00
48824;BME280;34640;53.590;10.054;2023-09-19T04:54:15;100130.91;;;15.83;100.00
48824;BME280;34640;53.590;10.054;2023-09-19T04:57:08;100129.06;;;15.81;100.00
48824;BME280;34640;53.590;10.054;2023-09-19T05:00:00;100143.94;;;15.80;100.00
48824;BME280;34640;53.590;10.054;2023-09-19T05:02:56;100142.91;;;15.75;100.00
48824;BME280;34640;53.590;10.054;2023-09-19T05:05:48;100144.66;;;15.75;100.00
48824;BME280;34640;53.590;10.054;2023-09-19T05:08:46;100141.09;;;15.73;100.00
48824;BME280;34640;53.590;10.054;2023-09-19T05:11:47;100142.97;;;15.77;100.00
48824;BME280;34640;53.590;10.054;2023-09-19T05:14:38;100149.78;;;15.70;100.00
48824;BME280;34640;53.590;10.054;2023-09-19T05:17:35;100156.84;;;15.73;100.00
48824;BME280;34640;53.590;10.054;2023-09-19T05:20:29;100159.81;;;15.83;100.00
48824;BME280;34640;53.590;10.054;2023-09-19T05:23:23;100153.88;;;15.91;100.00
48824;BME280;34640;53.590;10.054;2023-09-19T05:26:20;100157.94;;;15.81;100.00
48824;BME280;34640;53.590;10.054;2023-09-19T05:29:12;100162.81;;;15.67;100.00
48824;BME280;34640;53.590;10.054;2023-09-19T05:32:03;100169.69;;;15.62;100.00
48824;BME280;34640;53.590;10.054;2023-09-19T05:35:03;100164.94;;;15.52;100.00
48824;BME280;34640;53.590;10.054;2023-09-19T05:37:58;100165.13;;;15.58;100.00
48824;BME280;34640;53.590;10.054;2023-09-19T05:40:56;100159.06;;;15.59;100.00
48824;BME280;34640;53.590;10.054;2023-09-19T05:43:48;100160.06;;;15.63;100.00
48824;BME280;34640;53.590;10.054;2023-09-19T05:46:40;100161.00;;;15.65;100.00
48824;BME280;34640;53.590;10.054;2023-09-19T05:49:32;100160.09;;;15.64;100.00
48824;BME280;34640;53.590;10.054;2023-09-19T05:52:25;100171.72;;;15.72;100.00
48824;BME280;34640;53.590;10.054;2023-09-19T05:55:16;100160.72;;;15.85;100.00
48824;BME280;34640;53.590;10.054;2023-09-19T05:58:07;100173.56;;;15.76;100.00
48824;BME280;34640;53.590;10.054;2023-09-19T06:01:00;100179.06;;;15.84;100.00
48824;BME280;34640;53.590;10.054;2023-09-19T06:03:53;100181.63;;;15.82;100.00
48824;BME280;34640;53.590;10.054;2023-09-19T06:06:46;100180.34;;;15.98;100.00
48824;BME280;34640;53.590;10.054;2023-09-19T06:09:40;100171.03;;;16.09;100.00
48824;BME280;34640;53.590;10.054;2023-09-19T06:12:31;100168.50;;;16.12;100.00
48824;BME280;34640;53.590;10.054;2023-09-19T06:15:27;100171.88;;;16.08;100.00
48824;BME280;34640;53.590;10.054;2023-09-19T06:18:25;100184.31;;;16.14;100.00
48824;BME280;34640;53.590;10.054;2023-09-19T06:21:17;100183.69;;;16.24;100.00
48824;BME280;34640;53.590;10.054;2023-09-19T06:24:08;100185.69;;;16.33;100.00
48824;BME280;34640;53.590;10.054;2023-09-19T06:27:01;100179.72;;;16.38;100.00
48824;BME280;34640;53.590;10.054;2023-09-19T06:29:54;100203.28;;;16.35;100.00
48824;BME280;34640;53.590;10.054;2023-09-19T06:32:55;100203.13;;;16.29;100.00
48824;BME280;34640;53.590;10.054;2023-09-19T06:35:53;100193.53;;;16.31;100.00
48824;BME280;34640;53.590;10.054;2023-09-19T06:38:49;100205.63;;;16.26;100.00
48824;BME280;34640;53.590;10.054;2023-09-19T06:41:41;100202.34;;;16.33;100.00
48824;BME280;34640;53.590;10.054;2023-09-19T06:44:34;100200.47;;;16.28;100.00
48824;BME280;34640;53.590;10.054;2023-09-19T06:47:25;100196.44;;;16.42;100.00
48824;BME280;34640;53.590;10.054;2023-09-19T06:50:23;100200.38;;;16.58;100.00
48824;BME280;34640;53.590;10.054;2023-09-19T06:53:16;100211.25;;;16.70;100.00
48824;BME280;34640;53.590;10.054;2023-09-19T06:56:07;100211.00;;;16.62;100.00
48824;BME280;34640;53.590;10.054;2023-09-19T06:59:02;100199.56;;;16.60;100.00
48824;BME280;34640;53.590;10.054;2023-09-19T07:01:57;100202.16;;;16.59;100.00
48824;BME280;34640;53.590;10.054;2023-09-19T07:04:50;100209.47;;;16.69;100.00
48824;BME280;34640;53.590;10.054;2023-09-19T07:07:42;100217.56;;;16.76;100.00
48824;BME280;34640;53.590;10.054;2023-09-19T07:10:42;100237.13;;;16.88;100.00
48824;BME280;34640;53.590;10.054;2023-09-19T07:13:39;100234.50;;;16.88;100.00
48824;BME280;34640;53.590;10.054;2023-09-19T07:16:30;100221.91;;;16.74;100.00
48824;BME280;34640;53.590;10.054;2023-09-19T07:19:24;100247.16;;;16.69;100.00
48824;BME280;34640;53.590;10.054;2023-09-19T07:22:25;100250.50;;;16.64;100.00
48824;BME280;34640;53.590;10.054;2023-09-19T07:25:17;100248.38;;;16.82;100.00
48824;BME280;34640;53.590;10.054;2023-09-19T07:28:08;100249.34;;;16.86;100.00
48824;BME280;34640;53.590;10.054;2023-09-19T07:31:06;100245.88;;;16.87;100.00
48824;BME280;34640;53.590;10.054;2023-09-19T07:33:59;100245.19;;;16.94;100.00
48824;BME280;34640;53.590;10.054;2023-09-19T07:36:52;100252.91;;;16.88;100.00
48824;BME280;34640;53.590;10.054;2023-09-19T07:39:49;100246.09;;;16.94;100.00
48824;BME280;34640;53.590;10.054;2023-09-19T07:42:41;100272.13;;;16.85;100.00
48824;BME280;34640;53.590;10.054;2023-09-19T07:45:34;100264.28;;;16.87;100.00
48824;BME280;34640;53.590;10.054;2023-09-19T07:48:26;100263.00;;;16.71;100.00
48824;BME280;34640;53.590;10.054;2023-09-19T07:51:23;100268.19;;;16.69;100.00
48824;BME280;34640;53.590;10.054;2023-09-19T07:54:16;100263.63;;;16.64;100.00
48824;BME280;34640;53.590;10.054;2023-09-19T07:57:08;100279.75;;;16.44;100.00
48824;BME280;34640;53.590;10.054;2023-09-19T08:00:00;100281.00;;;16.57;100.00
48824;BME280;34640;53.590;10.054;2023-09-19T08:02:54;100290.03;;;16.37;100.00
48824;BME280;34640;53.590;10.054;2023-09-19T08:05:57;100292.38;;;15.98;100.00
48824;BME280;34640;53.590;10.054;2023-09-19T08:08:55;100304.06;;;15.79;100.00
48824;BME280;34640;53.590;10.054;2023-09-19T08:11:49;100305.69;;;15.48;100.00
48824;BME280;34640;53.590;10.054;2023-09-19T08:14:41;100306.56;;;15.22;100.00
48824;BME280;34640;53.590;10.054;2023-09-19T08:17:35;100291.34;;;15.12;100.00
48824;BME280;34640;53.590;10.054;2023-09-19T08:20:27;100291.81;;;15.00;100.00
48824;BME280;34640;53.590;10.054;2023-09-19T08:23:24;100296.56;;;15.12;100.00
48824;BME280;34640;53.590;10.054;2023-09-19T08:26:22;100308.72;;;15.35;100.00
48824;BME280;34640;53.590;10.054;2023-09-19T08:29:15;100294.66;;;15.58;100.00
48824;BME280;34640;53.590;10.054;2023-09-19T08:32:07;100296.03;;;15.74;100.00
48824;BME280;34640;53.590;10.054;2023-09-19T08:34:59;100294.91;;;15.95;100.00
48824;BME280;34640;53.590;10.054;2023-09-19T08:37:56;100301.25;;;16.01;100.00
48824;BME280;34640;53.590;10.054;2023-09-19T08:40:57;100292.31;;;16.25;100.00
48824;BME280;34640;53.590;10.054;2023-09-19T08:43:58;100282.03;;;16.32;100.00
48824;BME280;34640;53.590;10.054;2023-09-19T08:47:01;100291.06;;;16.42;100.00
48824;BME280;34640;53.590;10.054;2023-09-19T08:49:59;100295.22;;;16.65;100.00
48824;BME280;34640;53.590;10.054;2023-09-19T08:53:00;100291.50;;;16.57;100.00
48824;BME280;34640;53.590;10.054;2023-09-19T08:55:51;100288.97;;;16.60;100.00
48824;BME280;34640;53.590;10.054;2023-09-19T08:58:48;100285.66;;;16.67;100.00
48824;BME280;34640;53.590;10.054;2023-09-19T09:01:50;100279.88;;;16.79;100.00
48824;BME280;34640;53.590;10.054;2023-09-19T09:04:45;100281.81;;;16.86;100.00
48824;BME280;34640;53.590;10.054;2023-09-19T09:07:36;100283.50;;;16.84;100.00
48824;BME280;34640;53.590;10.054;2023-09-19T09:10:35;100289.81;;;16.91;100.00
48824;BME280;34640;53.590;10.054;2023-09-19T09:13:32;100293.78;;;17.08;100.00
48824;BME280;34640;53.590;10.054;2023-09-19T09:16:24;100295.97;;;17.24;100.00
48824;BME280;34640;53.590;10.054;2023-09-19T09:19:23;100296.66;;;17.17;100.00
48824;BME280;34640;53.590;10.054;2023-09-19T09:22:17;100290.84;;;17.30;100.00
48824;BME280;34640;53.590;10.054;2023-09-19T09:25:08;100302.88;;;17.21;100.00
48824;BME280;34640;53.590;10.054;2023-09-19T09:28:00;100296.22;;;17.35;100.00
48824;BME280;34640;53.590;10.054;2023-09-19T09:30:52;100287.63;;;17.42;100.00
48824;BME280;34640;53.590;10.054;2023-09-19T09:33:52;100287.56;;;17.39;100.00
48824;BME280;34640;53.590;10.054;2023-09-19T09:36:44;100297.06;;;17.34;100.00
48824;BME280;34640;53.590;10.054;2023-09-19T09:39:41;100296.81;;;17.58;100.00
48824;BME280;34640;53.590;10.054;2023-09-19T09:42:47;100296.59;;;17.85;100.00
48824;BME280;34640;53.590;10.054;2023-09-19T09:45:42;100294.34;;;18.01;100.00
48824;BME280;34640;53.590;10.054;2023-09-19T09:48:38;100303.47;;;18.19;100.00
48824;BME280;34640;53.590;10.054;2023-09-19T09:51:29;100306.53;;;18.39;100.00
48824;BME280;34640;53.590;10.054;2023-09-19T09:54:21;100306.78;;;18.49;100.00
48824;BME280;34640;53.590;10.054;2023-09-19T09:57:20;100296.25;;;18.51;100.00
48824;BME280;34640;53.590;10.054;2023-09-19T10:00:13;100291.88;;;18.51;100.00
48824;BME280;34640;53.590;10.054;2023-09-19T10:03:13;100287.38;;;18.46;100.00
48824;BME280;34640;53.590;10.054;2023-09-19T10:06:12;100297.31;;;18.60;100.00
48824;BME280;34640;53.590;10.054;2023-09-19T10:09:22;100295.75;;;18.67;100.00
48824;BME280;34640;53.590;10.054;2023-09-19T10:12:22;100293.00;;;18.64;100.00
48824;BME280;34640;53.590;10.054;2023-09-19T10:15:16;100291.94;;;18.56;100.00
48824;BME280;34640;53.590;10.054;2023-09-19T10:18:11;100282.31;;;18.58;100.00
48824;BME280;34640;53.590;10.054;2023-09-19T10:21:07;100308.16;;;18.74;100.00
48824;BME280;34640;53.590;10.054;2023-09-19T10:24:06;100310.13;;;18.84;100.00
48824;BME280;34640;53.590;10.054;2023-09-19T10:27:05;100309.53;;;19.01;100.00
48824;BME280;34640;53.590;10.054;2023-09-19T10:30:00;100309.84;;;19.17;100.00
48824;BME280;34640;53.590;10.054;2023-09-19T10:32:55;100301.06;;;19.18;100.00
48824;BME280;34640;53.590;10.054;2023-09-19T10:35:49;100301.75;;;19.08;100.00
48824;BME280;34640;53.590;10.054;2023-09-19T10:38:41;100293.50;;;18.88;100.00
48824;BME280;34640;53.590;10.054;2023-09-19T10:41:40;100290.94;;;18.93;100.00
48824;BME280;34640;53.590;10.054;2023-09-19T10:44:41;100300.94;;;19.09;100.00
48824;BME280;34640;53.590;10.054;2023-09-19T10:47:35;100299.41;;;19.23;100.00
48824;BME280;34640;53.590;10.054;2023-09-19T10:50:35;100296.75;;;19.23;100.00
48824;BME280;34640;53.590;10.054;2023-09-19T10:53:40;100302.44;;;19.48;100.00
48824;BME280;34640;53.590;10.054;2023-09-19T10:56:33;100289.78;;;19.27;100.00
48824;BME280;34640;53.590;10.054;2023-09-19T10:59:27;100302.56;;;19.04;100.00
48824;BME280;34640;53.590;10.054;2023-09-19T11:02:32;100309.44;;;18.95;100.00
48824;BME280;34640;53.590;10.054;2023-09-19T11:05:32;100303.28;;;18.94;100.00
48824;BME280;34640;53.590;10.054;2023-09-19T11:08:23;100306.84;;;18.96;100.00
48824;BME280;34640;53.590;10.054;2023-09-19T11:14:30;100306.84;;;18.98;100.00
48824;BME280;34640;53.590;10.054;2023-09-19T11:20:37;100303.81;;;18.76;100.00
48824;BME280;34640;53.590;10.054;2023-09-19T11:23:33;100304.59;;;18.71;100.00
48824;BME280;34640;53.590;10.054;2023-09-19T11:26:39;100299.44;;;18.77;100.00
48824;BME280;34640;53.590;10.054;2023-09-19T11:29:33;100296.16;;;18.90;100.00
48824;BME280;34640;53.590;10.054;2023-09-19T11:38:59;100294.13;;;19.25;100.00
48824;BME280;34640;53.590;10.054;2023-09-19T11:42:08;100294.19;;;19.28;100.00
48824;BME280;34640;53.590;10.054;2023-09-19T11:48:30;100294.66;;;19.04;100.00
48824;BME280;34640;53.590;10.054;2023-09-19T11:51:29;100292.16;;;19.10;100.00
48824;BME280;34640;53.590;10.054;2023-09-19T11:54:34;100283.97;;;18.97;100.00
48824;BME280;34640;53.590;10.054;2023-09-19T11:57:29;100294.91;;;19.18;100.00
48824;BME280;34640;53.590;10.054;2023-09-19T12:00:28;100289.03;;;19.34;100.00
48824;BME280;34640;53.590;10.054;2023-09-19T12:03:19;100279.44;;;19.39;100.00
48824;BME280;34640;53.590;10.054;2023-09-19T12:06:13;100285.47;;;19.31;100.00
48824;BME280;34640;53.590;10.054;2023-09-19T12:09:12;100294.97;;;19.22;100.00
48824;BME280;34640;53.590;10.054;2023-09-19T12:12:08;100295.84;;;19.21;100.00
48824;BME280;34640;53.590;10.054;2023-09-19T12:15:00;100292.16;;;19.12;100.00
48824;BME280;34640;53.590;10.054;2023-09-19T12:18:00;100292.25;;;19.16;100.00
48824;BME280;34640;53.590;10.054;2023-09-19T12:20:54;100294.69;;;19.06;100.00
48824;BME280;34640;53.590;10.054;2023-09-19T12:23:52;100287.84;;;19.17;100.00
48824;BME280;34640;53.590;10.054;2023-09-19T12:26:54;100294.69;;;19.06;100.00
48824;BME280;34640;53.590;10.054;2023-09-19T12:29:48;100286.06;;;19.16;100.00
48824;BME280;34640;53.590;10.054;2023-09-19T12:32:40;100299.09;;;19.07;100.00
48824;BME280;34640;53.590;10.054;2023-09-19T12:35:32;100286.94;;;19.15;100.00
48824;BME280;34640;53.590;10.054;2023-09-19T12:38:25;100287.22;;;19.32;100.00
48824;BME280;34640;53.590;10.054;2023-09-19T12:41:18;100287.13;;;19.27;100.00
48824;BME280;34640;53.590;10.054;2023-09-19T12:44:17;100288.16;;;19.35;100.00
48824;BME280;34640;53.590;10.054;2023-09-19T12:47:17;100285.56;;;19.38;100.00
48824;BME280;34640;53.590;10.054;2023-09-19T12:50:11;100295.25;;;19.38;100.00
48824;BME280;34640;53.590;10.054;2023-09-19T12:53:08;100286.88;;;19.63;100.00
48824;BME280;34640;53.590;10.054;2023-09-19T12:56:16;100276.06;;;19.51;100.00
48824;BME280;34640;53.590;10.054;2023-09-19T12:59:08;100270.78;;;19.49;100.00
48824;BME280;34640;53.590;10.054;2023-09-19T13:02:06;100278.56;;;19.40;100.00
48824;BME280;34640;53.590;10.054;2023-09-19T13:05:06;100272.53;;;19.50;100.00
48824;BME280;34640;53.590;10.054;2023-09-19T13:08:05;100268.13;;;19.49;100.00
48824;BME280;34640;53.590;10.054;2023-09-19T13:11:09;100270.97;;;19.59;100.00
48824;BME280;34640;53.590;10.054;2023-09-19T13:14:19;100267.75;;;19.78;100.00
48824;BME280;34640;53.590;10.054;2023-09-19T13:17:10;100270.47;;;19.84;100.00
48824;BME280;34640;53.590;10.054;2023-09-19T13:20:19;100254.53;;;19.79;100.00
48824;BME280;34640;53.590;10.054;2023-09-19T13:23:25;100254.53;;;19.79;100.00
48824;BME280;34640;53.590;10.054;2023-09-19T13:26:17;100251.00;;;19.79;100.00
48824;BME280;34640;53.590;10.054;2023-09-19T13:29:09;100253.59;;;19.74;100.00
48824;BME280;34640;53.590;10.054;2023-09-19T13:32:07;100244.91;;;19.83;100.00
48824;BME280;34640;53.590;10.054;2023-09-19T13:35:02;100242.31;;;19.88;100.00
48824;BME280;34640;53.590;10.054;2023-09-19T13:37:56;100238.97;;;19.99;100.00
48824;BME280;34640;53.590;10.054;2023-09-19T13:40:49;100238.94;;;19.98;100.00
48824;BME280;34640;53.590;10.054;2023-09-19T13:43:42;100236.56;;;20.19;100.00
48824;BME280;34640;53.590;10.054;2023-09-19T13:46:39;100236.66;;;20.27;100.00
48824;BME280;34640;53.590;10.054;2023-09-19T13:49:40;100228.63;;;20.18;100.00
48824;BME280;34640;53.590;10.054;2023-09-19T13:52:39;100213.66;;;20.18;100.00
48824;BME280;34640;53.590;10.054;2023-09-19T13:55:31;100222.25;;;20.03;100.00
48824;BME280;34640;53.590;10.054;2023-09-19T13:58:30;100213.41;;;20.00;100.00
48824;BME280;34640;53.590;10.054;2023-09-19T14:01:30;100217.25;;;20.25;100.00
48824;BME280;34640;53.590;10.054;2023-09-19T14:04:21;100220.91;;;20.37;100.00
48824;BME280;34640;53.590;10.054;2023-09-19T14:07:13;100221.66;;;20.26;100.00
48824;BME280;34640;53.590;10.054;2023-09-19T14:10:06;100210.94;;;20.15;100.00
48824;BME280;34640;53.590;10.054;2023-09-19T14:12:59;100211.50;;;19.90;100.00
48824;BME280;34640;53.590;10.054;2023-09-19T14:15:57;100188.47;;;19.79;100.00
48824;BME280;34640;53.590;10.054;2023-09-19T14:18:55;100177.13;;;19.88;100.00
48824;BME280;34640;53.590;10.054;2023-09-19T14:21:52;100201.81;;;19.90;100.00
48824;BME280;34640;53.590;10.054;2023-09-19T14:24:45;100200.97;;;19.94;100.00
48824;BME280;34640;53.590;10.054;2023-09-19T14:27:37;100202.94;;;20.09;100.00
48824;BME280;34640;53.590;10.054;2023-09-19T14:30:29;100194.09;;;20.05;100.00
48824;BME280;34640;53.590;10.054;2023-09-19T14:33:21;100197.66;;;20.09;100.00
48824;BME280;34640;53.590;10.054;2023-09-19T14:36:12;100181.81;;;20.10;100.00
48824;BME280;34640;53.590;10.054;2023-09-19T14:39:03;100194.19;;;20.14;100.00
48824;BME280;34640;53.590;10.054;2023-09-19T14:41:55;100202.22;;;20.21;100.00
48824;BME280;34640;53.590;10.054;2023-09-19T14:44:46;100192.50;;;20.20;100.00
48824;BME280;34640;53.590;10.054;2023-09-19T14:47:40;100178.22;;;20.04;100.00
48824;BME280;34640;53.590;10.054;2023-09-19T14:50:31;100185.06;;;19.90;100.00
48824;BME280;34640;53.590;10.054;2023-09-19T14:53:22;100185.03;;;19.87;100.00
48824;BME280;34640;53.590;10.054;2023-09-19T14:56:15;100178.94;;;19.94;100.00
48824;BME280;34640;53.590;10.054;2023-09-19T14:59:15;100182.59;;;20.00;100.00
48824;BME280;34640;53.590;10.054;2023-09-19T15:02:12;100190.34;;;19.90;100.00
48824;BME280;34640;53.590;10.054;2023-09-19T15:05:14;100196.38;;;19.78;100.00
48824;BME280;34640;53.590;10.054;2023-09-19T15:08:16;100193.66;;;19.73;100.00
48824;BME280;34640;53.590;10.054;2023-09-19T15:11:07;100179.66;;;19.79;100.00